sensor_id;sensor_type;location;lat;lon;timestamp;temperature;humidity
22813;DHT22;11573;51.334;3.244;2023-03-20T00:01:24;6.30;99.90
22813;DHT22;11573;51.334;3.244;2023-03-20T00:03:52;6.20;99.90
22813;DHT22;11573;51.334;3.244;2023-03-20T00:06:20;6.20;99.90
22813;DHT22;11573;51.334;3.244;2023-03-20T00:08:48;6.30;99.90
22813;DHT22;11573;51.334;3.244;2023-03-20T00:11:36;6.40;99.90
22813;DHT22;11573;51.334;3.244;2023-03-20T00:14:12;6.50;99.90
22813;DHT22;11573;51.334;3.244;2023-03-20T00:16:44;6.50;99.90
22813;DHT22;11573;51.334;3.244;2023-03-20T00:19:18;6.60;99.90
22813;DHT22;11573;51.334;3.244;2023-03-20T00:21:46;6.60;99.90
22813;DHT22;11573;51.334;3.244;2023-03-20T00:24:14;6.70;99.90
22813;DHT22;11573;51.334;3.244;2023-03-20T00:26:43;6.70;99.90
22813;DHT22;11573;51.334;3.244;2023-03-20T00:31:48;6.70;99.90
22813;DHT22;11573;51.334;3.244;2023-03-20T00:34:17;6.70;99.90
22813;DHT22;11573;51.334;3.244;2023-03-20T00:36:45;6.60;99.90
22813;DHT22;11573;51.334;3.244;2023-03-20T00:39:12;6.60;99.90
22813;DHT22;11573;51.334;3.244;2023-03-20T00:41:43;6.60;99.90
22813;DHT22;11573;51.334;3.244;2023-03-20T00:47:00;6.50;99.90
22813;DHT22;11573;51.334;3.244;2023-03-20T00:49:33;6.50;99.90
22813;DHT22;11573;51.334;3.244;2023-03-20T00:52:01;6.50;99.90
22813;DHT22;11573;51.334;3.244;2023-03-20T00:54:29;6.50;99.90
22813;DHT22;11573;51.334;3.244;2023-03-20T00:57:20;6.50;99.90
22813;DHT22;11573;51.334;3.244;2023-03-20T01:00:00;6.50;99.90
22813;DHT22;11573;51.334;3.244;2023-03-20T01:02:28;6.40;99.90
22813;DHT22;11573;51.334;3.244;2023-03-20T01:04:58;6.40;99.90
22813;DHT22;11573;51.334;3.244;2023-03-20T01:07:26;6.40;99.90
22813;DHT22;11573;51.334;3.244;2023-03-20T01:09:53;6.40;99.90
22813;DHT22;11573;51.334;3.244;2023-03-20T01:12:21;6.30;99.90
22813;DHT22;11573;51.334;3.244;2023-03-20T01:14:54;6.30;99.90
22813;DHT22;11573;51.334;3.244;2023-03-20T01:17:23;6.30;99.90
22813;DHT22;11573;51.334;3.244;2023-03-20T01:19:51;6.30;99.90
22813;DHT22;11573;51.334;3.244;2023-03-20T01:22:18;6.30;99.90
22813;DHT22;11573;51.334;3.244;2023-03-20T01:24:45;6.30;99.90
22813;DHT22;11573;51.334;3.244;2023-03-20T01:27:15;6.20;99.90
22813;DHT22;11573;51.334;3.244;2023-03-20T01:29:42;6.20;99.90
22813;DHT22;11573;51.334;3.244;2023-03-20T01:32:17;6.20;99.90
22813;DHT22;11573;51.334;3.244;2023-03-20T01:34:48;6.20;99.90
22813;DHT22;11573;51.334;3.244;2023-03-20T01:37:25;6.20;99.90
22813;DHT22;11573;51.334;3.244;2023-03-20T01:39:55;6.20;99.90
22813;DHT22;11573;51.334;3.244;2023-03-20T01:42:23;6.20;99.90
22813;DHT22;11573;51.334;3.244;2023-03-20T01:44:50;6.20;99.90
22813;DHT22;11573;51.334;3.244;2023-03-20T01:47:21;6.20;99.90
22813;DHT22;11573;51.334;3.244;2023-03-20T01:52:48;6.20;99.90
22813;DHT22;11573;51.334;3.244;2023-03-20T01:55:16;6.20;99.90
22813;DHT22;11573;51.334;3.244;2023-03-20T01:57:51;6.30;99.90
22813;DHT22;11573;51.334;3.244;2023-03-20T02:00:19;6.30;99.90
22813;DHT22;11573;51.334;3.244;2023-03-20T02:02:47;6.30;99.90
22813;DHT22;11573;51.334;3.244;2023-03-20T02:05:33;6.30;99.90
22813;DHT22;11573;51.334;3.244;2023-03-20T02:08:16;6.40;99.90
22813;DHT22;11573;51.334;3.244;2023-03-20T02:10:45;6.40;99.90
22813;DHT22;11573;51.334;3.244;2023-03-20T02:13:20;6.40;99.90
22813;DHT22;11573;51.334;3.244;2023-03-20T02:18:51;6.40;99.90
22813;DHT22;11573;51.334;3.244;2023-03-20T02:36:06;6.40;99.90
22813;DHT22;11573;51.334;3.244;2023-03-20T02:44:11;6.50;99.90
22813;DHT22;11573;51.334;3.244;2023-03-20T02:47:02;6.50;99.90
22813;DHT22;11573;51.334;3.244;2023-03-20T02:50:27;6.40;99.90
22813;DHT22;11573;51.334;3.244;2023-03-20T02:57:59;6.50;99.90
22813;DHT22;11573;51.334;3.244;2023-03-20T03:00:37;6.50;99.90
22813;DHT22;11573;51.334;3.244;2023-03-20T03:03:14;6.50;99.90
22813;DHT22;11573;51.334;3.244;2023-03-20T03:05:55;6.60;99.90
22813;DHT22;11573;51.334;3.244;2023-03-20T03:08:27;6.60;99.90
22813;DHT22;11573;51.334;3.244;2023-03-20T03:11:02;6.60;99.90
22813;DHT22;11573;51.334;3.244;2023-03-20T03:13:32;6.50;99.90
22813;DHT22;11573;51.334;3.244;2023-03-20T03:16:14;6.60;99.90
22813;DHT22;11573;51.334;3.244;2023-03-20T03:18:44;6.60;99.90
22813;DHT22;11573;51.334;3.244;2023-03-20T03:21:14;6.60;99.90
22813;DHT22;11573;51.334;3.244;2023-03-20T03:23:45;6.60;99.90
22813;DHT22;11573;51.334;3.244;2023-03-20T03:26:19;6.60;99.90
22813;DHT22;11573;51.334;3.244;2023-03-20T03:28:49;6.70;99.90
22813;DHT22;11573;51.334;3.244;2023-03-20T03:31:18;6.70;99.90
22813;DHT22;11573;51.334;3.244;2023-03-20T03:33:50;6.70;99.90
22813;DHT22;11573;51.334;3.244;2023-03-20T03:36:28;6.70;99.90
22813;DHT22;11573;51.334;3.244;2023-03-20T03:44:25;6.80;99.90
22813;DHT22;11573;51.334;3.244;2023-03-20T03:47:01;6.70;99.90
22813;DHT22;11573;51.334;3.244;2023-03-20T03:49:32;6.80;99.90
22813;DHT22;11573;51.334;3.244;2023-03-20T03:52:05;6.70;99.90
22813;DHT22;11573;51.334;3.244;2023-03-20T03:54:39;6.70;99.90
22813;DHT22;11573;51.334;3.244;2023-03-20T03:57:33;6.70;99.90
22813;DHT22;11573;51.334;3.244;2023-03-20T04:00:04;6.80;99.90
22813;DHT22;11573;51.334;3.244;2023-03-20T04:02:40;6.80;99.90
22813;DHT22;11573;51.334;3.244;2023-03-20T04:05:08;6.80;99.90
22813;DHT22;11573;51.334;3.244;2023-03-20T04:07:36;6.90;99.90
22813;DHT22;11573;51.334;3.244;2023-03-20T04:10:03;6.90;99.90
22813;DHT22;11573;51.334;3.244;2023-03-20T04:12:37;6.90;99.90
22813;DHT22;11573;51.334;3.244;2023-03-20T04:15:09;6.90;99.90
22813;DHT22;11573;51.334;3.244;2023-03-20T04:17:36;7.00;99.90
22813;DHT22;11573;51.334;3.244;2023-03-20T04:20:05;7.00;99.90
22813;DHT22;11573;51.334;3.244;2023-03-20T04:22:33;7.00;99.90
22813;DHT22;11573;51.334;3.244;2023-03-20T04:25:08;7.00;99.90
22813;DHT22;11573;51.334;3.244;2023-03-20T04:27:35;7.00;99.90
22813;DHT22;11573;51.334;3.244;2023-03-20T04:30:10;7.10;99.90
22813;DHT22;11573;51.334;3.244;2023-03-20T04:32:56;7.10;99.90
22813;DHT22;11573;51.334;3.244;2023-03-20T04:35:35;7.10;99.90
22813;DHT22;11573;51.334;3.244;2023-03-20T04:38:09;7.10;99.90
22813;DHT22;11573;51.334;3.244;2023-03-20T04:40:37;7.10;99.90
22813;DHT22;11573;51.334;3.244;2023-03-20T04:43:04;7.10;99.90
22813;DHT22;11573;51.334;3.244;2023-03-20T04:45:31;7.10;99.90
22813;DHT22;11573;51.334;3.244;2023-03-20T04:47:58;7.10;99.90
22813;DHT22;11573;51.334;3.244;2023-03-20T04:50:26;7.10;99.90
22813;DHT22;11573;51.334;3.244;2023-03-20T04:52:54;7.20;99.90
22813;DHT22;11573;51.334;3.244;2023-03-20T04:55:21;7.20;99.90
22813;DHT22;11573;51.334;3.244;2023-03-20T04:57:49;7.20;99.90
22813;DHT22;11573;51.334;3.244;2023-03-20T05:00:17;7.20;99.90
22813;DHT22;11573;51.334;3.244;2023-03-20T05:02:44;7.20;99.90
22813;DHT22;11573;51.334;3.244;2023-03-20T05:05:13;7.20;99.90
22813;DHT22;11573;51.334;3.244;2023-03-20T05:07:40;7.30;99.90
22813;DHT22;11573;51.334;3.244;2023-03-20T05:10:10;7.30;99.90
22813;DHT22;11573;51.334;3.244;2023-03-20T05:12:46;7.20;99.90
22813;DHT22;11573;51.334;3.244;2023-03-20T05:15:35;7.30;99.90
22813;DHT22;11573;51.334;3.244;2023-03-20T05:18:32;7.20;99.90
22813;DHT22;11573;51.334;3.244;2023-03-20T05:21:11;7.20;99.90
22813;DHT22;11573;51.334;3.244;2023-03-20T05:23:52;7.30;99.90
22813;DHT22;11573;51.334;3.244;2023-03-20T05:26:28;7.30;99.90
22813;DHT22;11573;51.334;3.244;2023-03-20T05:29:18;7.30;99.90
22813;DHT22;11573;51.334;3.244;2023-03-20T05:31:45;7.30;99.90
22813;DHT22;11573;51.334;3.244;2023-03-20T05:34:17;7.30;99.90
22813;DHT22;11573;51.334;3.244;2023-03-20T05:37:13;7.40;99.90
22813;DHT22;11573;51.334;3.244;2023-03-20T05:39:59;7.40;99.90
22813;DHT22;11573;51.334;3.244;2023-03-20T05:42:55;7.40;99.90
22813;DHT22;11573;51.334;3.244;2023-03-20T05:45:34;7.40;99.90
22813;DHT22;11573;51.334;3.244;2023-03-20T05:48:17;7.30;99.90
22813;DHT22;11573;51.334;3.244;2023-03-20T05:51:05;7.30;99.90
22813;DHT22;11573;51.334;3.244;2023-03-20T05:53:47;7.30;99.90
22813;DHT22;11573;51.334;3.244;2023-03-20T05:56:28;7.40;99.90
22813;DHT22;11573;51.334;3.244;2023-03-20T05:59:14;7.40;99.90
22813;DHT22;11573;51.334;3.244;2023-03-20T06:02:01;7.30;99.90
22813;DHT22;11573;51.334;3.244;2023-03-20T06:04:32;7.30;99.90
22813;DHT22;11573;51.334;3.244;2023-03-20T06:07:25;7.30;99.90
22813;DHT22;11573;51.334;3.244;2023-03-20T06:10:00;7.30;99.90
22813;DHT22;11573;51.334;3.244;2023-03-20T06:12:28;7.40;99.90
22813;DHT22;11573;51.334;3.244;2023-03-20T06:14:55;7.40;99.90
22813;DHT22;11573;51.334;3.244;2023-03-20T06:17:23;7.40;99.90
22813;DHT22;11573;51.334;3.244;2023-03-20T06:19:57;7.40;99.90
22813;DHT22;11573;51.334;3.244;2023-03-20T06:22:24;7.40;99.90
22813;DHT22;11573;51.334;3.244;2023-03-20T06:24:50;7.40;99.90
22813;DHT22;11573;51.334;3.244;2023-03-20T06:27:21;7.50;99.90
22813;DHT22;11573;51.334;3.244;2023-03-20T06:29:48;7.50;99.90
22813;DHT22;11573;51.334;3.244;2023-03-20T06:32:21;7.50;99.90
22813;DHT22;11573;51.334;3.244;2023-03-20T06:34:50;7.50;99.90
22813;DHT22;11573;51.334;3.244;2023-03-20T06:37:18;7.50;99.90
22813;DHT22;11573;51.334;3.244;2023-03-20T06:39:45;7.60;99.90
22813;DHT22;11573;51.334;3.244;2023-03-20T06:42:13;7.60;99.90
22813;DHT22;11573;51.334;3.244;2023-03-20T06:44:43;7.60;99.90
22813;DHT22;11573;51.334;3.244;2023-03-20T06:47:18;7.70;99.90
22813;DHT22;11573;51.334;3.244;2023-03-20T06:49:47;7.70;99.90
22813;DHT22;11573;51.334;3.244;2023-03-20T06:52:16;7.70;99.90
22813;DHT22;11573;51.334;3.244;2023-03-20T06:54:48;7.80;99.90
22813;DHT22;11573;51.334;3.244;2023-03-20T06:57:17;7.80;99.90
22813;DHT22;11573;51.334;3.244;2023-03-20T06:59:44;7.90;99.90
22813;DHT22;11573;51.334;3.244;2023-03-20T07:02:11;7.80;99.90
22813;DHT22;11573;51.334;3.244;2023-03-20T07:04:38;7.80;99.90
22813;DHT22;11573;51.334;3.244;2023-03-20T07:07:06;7.90;99.90
22813;DHT22;11573;51.334;3.244;2023-03-20T07:09:34;7.90;99.90
22813;DHT22;11573;51.334;3.244;2023-03-20T07:12:01;8.00;99.90
22813;DHT22;11573;51.334;3.244;2023-03-20T07:14:30;8.00;99.90
22813;DHT22;11573;51.334;3.244;2023-03-20T07:17:02;8.00;99.90
22813;DHT22;11573;51.334;3.244;2023-03-20T07:19:29;8.00;99.90
22813;DHT22;11573;51.334;3.244;2023-03-20T07:21:59;8.00;99.90
22813;DHT22;11573;51.334;3.244;2023-03-20T07:24:33;8.00;99.90
22813;DHT22;11573;51.334;3.244;2023-03-20T07:27:00;7.80;99.90
22813;DHT22;11573;51.334;3.244;2023-03-20T07:29:29;7.90;99.90
22813;DHT22;11573;51.334;3.244;2023-03-20T07:31:56;7.90;99.90
22813;DHT22;11573;51.334;3.244;2023-03-20T07:34:31;8.00;99.90
22813;DHT22;11573;51.334;3.244;2023-03-20T07:36:59;8.10;99.90
22813;DHT22;11573;51.334;3.244;2023-03-20T07:39:27;8.10;99.90
22813;DHT22;11573;51.334;3.244;2023-03-20T07:42:17;8.20;99.90
22813;DHT22;11573;51.334;3.244;2023-03-20T07:44:56;8.20;99.90
22813;DHT22;11573;51.334;3.244;2023-03-20T07:47:23;8.30;99.90
22813;DHT22;11573;51.334;3.244;2023-03-20T07:49:50;8.40;99.90
22813;DHT22;11573;51.334;3.244;2023-03-20T07:52:17;8.50;99.90
22813;DHT22;11573;51.334;3.244;2023-03-20T07:54:44;8.60;99.90
22813;DHT22;11573;51.334;3.244;2023-03-20T07:57:13;8.80;99.90
22813;DHT22;11573;51.334;3.244;2023-03-20T07:59:40;8.80;99.90
22813;DHT22;11573;51.334;3.244;2023-03-20T08:02:12;8.80;99.90
22813;DHT22;11573;51.334;3.244;2023-03-20T08:04:39;9.00;99.90
22813;DHT22;11573;51.334;3.244;2023-03-20T08:07:07;9.10;99.90
22813;DHT22;11573;51.334;3.244;2023-03-20T08:09:34;9.30;99.90
22813;DHT22;11573;51.334;3.244;2023-03-20T08:12:01;9.30;99.90
22813;DHT22;11573;51.334;3.244;2023-03-20T08:14:28;9.40;99.90
22813;DHT22;11573;51.334;3.244;2023-03-20T08:16:54;9.50;99.90
22813;DHT22;11573;51.334;3.244;2023-03-20T08:19:39;9.80;99.90
22813;DHT22;11573;51.334;3.244;2023-03-20T08:22:06;9.90;99.90
22813;DHT22;11573;51.334;3.244;2023-03-20T08:24:33;9.90;99.90
22813;DHT22;11573;51.334;3.244;2023-03-20T08:27:00;9.90;99.90
22813;DHT22;11573;51.334;3.244;2023-03-20T08:29:27;10.10;99.90
22813;DHT22;11573;51.334;3.244;2023-03-20T08:31:54;10.10;99.90
22813;DHT22;11573;51.334;3.244;2023-03-20T08:34:21;10.20;99.90
22813;DHT22;11573;51.334;3.244;2023-03-20T08:36:49;10.40;99.90
22813;DHT22;11573;51.334;3.244;2023-03-20T08:39:19;10.40;99.90
22813;DHT22;11573;51.334;3.244;2023-03-20T08:41:46;10.40;99.90
22813;DHT22;11573;51.334;3.244;2023-03-20T08:44:13;10.30;99.90
22813;DHT22;11573;51.334;3.244;2023-03-20T08:46:40;10.20;99.90
22813;DHT22;11573;51.334;3.244;2023-03-20T08:49:09;10.20;99.90
22813;DHT22;11573;51.334;3.244;2023-03-20T08:51:36;10.00;99.90
22813;DHT22;11573;51.334;3.244;2023-03-20T08:54:03;9.70;99.90
22813;DHT22;11573;51.334;3.244;2023-03-20T08:56:30;9.70;99.90
22813;DHT22;11573;51.334;3.244;2023-03-20T08:58:57;9.70;99.90
22813;DHT22;11573;51.334;3.244;2023-03-20T09:01:23;9.40;99.90
22813;DHT22;11573;51.334;3.244;2023-03-20T09:04:04;9.40;99.90
22813;DHT22;11573;51.334;3.244;2023-03-20T09:06:31;9.30;99.90
22813;DHT22;11573;51.334;3.244;2023-03-20T09:09:01;9.20;99.90
22813;DHT22;11573;51.334;3.244;2023-03-20T09:11:29;9.40;99.90
22813;DHT22;11573;51.334;3.244;2023-03-20T09:13:57;9.40;99.90
22813;DHT22;11573;51.334;3.244;2023-03-20T09:16:25;9.50;99.90
22813;DHT22;11573;51.334;3.244;2023-03-20T09:18:52;9.70;99.90
22813;DHT22;11573;51.334;3.244;2023-03-20T09:21:19;9.60;99.90
22813;DHT22;11573;51.334;3.244;2023-03-20T09:23:46;9.70;99.90
22813;DHT22;11573;51.334;3.244;2023-03-20T09:26:13;9.70;99.90
22813;DHT22;11573;51.334;3.244;2023-03-20T09:28:40;9.60;99.90
22813;DHT22;11573;51.334;3.244;2023-03-20T09:31:07;9.80;99.90
22813;DHT22;11573;51.334;3.244;2023-03-20T09:33:34;10.00;99.90
22813;DHT22;11573;51.334;3.244;2023-03-20T09:36:01;10.30;99.90
22813;DHT22;11573;51.334;3.244;2023-03-20T09:38:28;10.50;99.90
22813;DHT22;11573;51.334;3.244;2023-03-20T09:40:58;10.50;99.90
22813;DHT22;11573;51.334;3.244;2023-03-20T09:51:31;11.10;99.90
22813;DHT22;11573;51.334;3.244;2023-03-20T09:54:40;11.20;99.90
22813;DHT22;11573;51.334;3.244;2023-03-20T09:57:27;10.90;99.90
22813;DHT22;11573;51.334;3.244;2023-03-20T09:59:58;11.10;99.90
22813;DHT22;11573;51.334;3.244;2023-03-20T10:07:53;10.80;99.90
22813;DHT22;11573;51.334;3.244;2023-03-20T10:10:35;11.10;99.90
22813;DHT22;11573;51.334;3.244;2023-03-20T10:16:07;11.40;99.90
22813;DHT22;11573;51.334;3.244;2023-03-20T10:18:39;11.60;99.90
22813;DHT22;11573;51.334;3.244;2023-03-20T10:21:15;11.20;99.90
22813;DHT22;11573;51.334;3.244;2023-03-20T10:24:00;11.20;99.90
22813;DHT22;11573;51.334;3.244;2023-03-20T10:26:32;11.10;99.90
22813;DHT22;11573;51.334;3.244;2023-03-20T10:29:00;11.20;99.90
22813;DHT22;11573;51.334;3.244;2023-03-20T10:31:49;11.10;99.90
22813;DHT22;11573;51.334;3.244;2023-03-20T10:37:43;11.10;99.90
22813;DHT22;11573;51.334;3.244;2023-03-20T10:42:47;11.10;99.90
22813;DHT22;11573;51.334;3.244;2023-03-20T10:45:39;11.20;99.90
22813;DHT22;11573;51.334;3.244;2023-03-20T10:50:56;12.00;99.90
22813;DHT22;11573;51.334;3.244;2023-03-20T10:53:28;12.40;99.90
22813;DHT22;11573;51.334;3.244;2023-03-20T10:56:04;12.90;99.90
22813;DHT22;11573;51.334;3.244;2023-03-20T10:58:36;13.00;99.90
22813;DHT22;11573;51.334;3.244;2023-03-20T11:01:05;13.10;40.80
22813;DHT22;11573;51.334;3.244;2023-03-20T11:03:33;13.00;35.30
22813;DHT22;11573;51.334;3.244;2023-03-20T11:06:09;12.70;32.30
22813;DHT22;11573;51.334;3.244;2023-03-20T11:08:41;12.00;41.50
22813;DHT22;11573;51.334;3.244;2023-03-20T11:11:09;11.90;48.30
22813;DHT22;11573;51.334;3.244;2023-03-20T11:13:42;11.40;52.40
22813;DHT22;11573;51.334;3.244;2023-03-20T11:16:22;11.40;67.10
22813;DHT22;11573;51.334;3.244;2023-03-20T11:18:50;11.20;69.50
22813;DHT22;11573;51.334;3.244;2023-03-20T11:21:26;11.20;83.10
22813;DHT22;11573;51.334;3.244;2023-03-20T11:23:54;11.20;64.70
22813;DHT22;11573;51.334;3.244;2023-03-20T11:26:36;11.30;65.20
22813;DHT22;11573;51.334;3.244;2023-03-20T11:29:06;11.50;66.10
22813;DHT22;11573;51.334;3.244;2023-03-20T11:36:53;11.60;52.30
22813;DHT22;11573;51.334;3.244;2023-03-20T11:39:35;11.70;53.50
22813;DHT22;11573;51.334;3.244;2023-03-20T11:42:18;11.70;52.60
22813;DHT22;11573;51.334;3.244;2023-03-20T11:44:56;11.80;51.40
22813;DHT22;11573;51.334;3.244;2023-03-20T11:47:26;12.10;51.20
22813;DHT22;11573;51.334;3.244;2023-03-20T11:49:55;12.00;46.40
22813;DHT22;11573;51.334;3.244;2023-03-20T11:52:29;12.00;47.60
22813;DHT22;11573;51.334;3.244;2023-03-20T11:55:00;12.00;45.20
22813;DHT22;11573;51.334;3.244;2023-03-20T12:02:51;12.10;48.10
22813;DHT22;11573;51.334;3.244;2023-03-20T12:10:41;12.30;53.50
22813;DHT22;11573;51.334;3.244;2023-03-20T12:13:19;12.70;52.20
22813;DHT22;11573;51.334;3.244;2023-03-20T12:15:58;12.80;49.00
22813;DHT22;11573;51.334;3.244;2023-03-20T12:21:40;12.70;42.20
22813;DHT22;11573;51.334;3.244;2023-03-20T12:24:32;12.80;45.60
22813;DHT22;11573;51.334;3.244;2023-03-20T12:30:13;12.60;43.30
22813;DHT22;11573;51.334;3.244;2023-03-20T12:33:05;12.50;46.00
22813;DHT22;11573;51.334;3.244;2023-03-20T12:35:36;12.20;51.00
22813;DHT22;11573;51.334;3.244;2023-03-20T12:38:23;12.20;58.50
22813;DHT22;11573;51.334;3.244;2023-03-20T12:41:03;12.30;60.30
22813;DHT22;11573;51.334;3.244;2023-03-20T12:49:24;12.60;59.40
22813;DHT22;11573;51.334;3.244;2023-03-20T12:52:10;12.70;52.60
22813;DHT22;11573;51.334;3.244;2023-03-20T13:03:18;12.40;56.40
22813;DHT22;11573;51.334;3.244;2023-03-20T13:05:56;12.50;61.30
22813;DHT22;11573;51.334;3.244;2023-03-20T13:11:51;12.30;63.00
22813;DHT22;11573;51.334;3.244;2023-03-20T13:20:20;12.10;64.00
22813;DHT22;11573;51.334;3.244;2023-03-20T13:23:09;12.30;72.10
22813;DHT22;11573;51.334;3.244;2023-03-20T13:29:23;12.30;70.20
22813;DHT22;11573;51.334;3.244;2023-03-20T13:37:14;12.30;79.60
22813;DHT22;11573;51.334;3.244;2023-03-20T13:42:21;12.30;89.50
22813;DHT22;11573;51.334;3.244;2023-03-20T13:44:52;12.40;73.20
22813;DHT22;11573;51.334;3.244;2023-03-20T13:47:26;12.50;75.80
22813;DHT22;11573;51.334;3.244;2023-03-20T13:50:21;12.50;72.10
22813;DHT22;11573;51.334;3.244;2023-03-20T13:52:56;12.50;78.90
22813;DHT22;11573;51.334;3.244;2023-03-20T13:55:36;12.70;81.60
22813;DHT22;11573;51.334;3.244;2023-03-20T13:58:33;12.60;75.70
22813;DHT22;11573;51.334;3.244;2023-03-20T14:03:43;12.80;81.90
22813;DHT22;11573;51.334;3.244;2023-03-20T14:08:58;13.00;70.40
22813;DHT22;11573;51.334;3.244;2023-03-20T14:11:26;12.90;57.70
22813;DHT22;11573;51.334;3.244;2023-03-20T14:14:16;12.60;61.60
22813;DHT22;11573;51.334;3.244;2023-03-20T14:16:45;12.70;71.50
22813;DHT22;11573;51.334;3.244;2023-03-20T14:19:16;12.60;66.10
22813;DHT22;11573;51.334;3.244;2023-03-20T14:21:47;12.50;71.00
22813;DHT22;11573;51.334;3.244;2023-03-20T14:24:16;12.40;78.00
22813;DHT22;11573;51.334;3.244;2023-03-20T14:26:50;12.50;85.90
22813;DHT22;11573;51.334;3.244;2023-03-20T14:29:40;12.40;83.20
22813;DHT22;11573;51.334;3.244;2023-03-20T14:34:51;12.40;77.70
22813;DHT22;11573;51.334;3.244;2023-03-20T14:37:38;12.40;79.60
22813;DHT22;11573;51.334;3.244;2023-03-20T14:40:23;12.40;73.80
22813;DHT22;11573;51.334;3.244;2023-03-20T14:42:58;12.40;74.00
22813;DHT22;11573;51.334;3.244;2023-03-20T14:46:05;12.30;70.00
22813;DHT22;11573;51.334;3.244;2023-03-20T14:48:43;12.20;83.60
22813;DHT22;11573;51.334;3.244;2023-03-20T14:53:53;12.00;98.60
22813;DHT22;11573;51.334;3.244;2023-03-20T14:56:31;12.10;99.90
22813;DHT22;11573;51.334;3.244;2023-03-20T14:59:03;12.00;99.90
22813;DHT22;11573;51.334;3.244;2023-03-20T15:04:32;11.80;99.90
22813;DHT22;11573;51.334;3.244;2023-03-20T15:09:41;11.70;99.90
22813;DHT22;11573;51.334;3.244;2023-03-20T15:12:13;11.70;99.90
22813;DHT22;11573;51.334;3.244;2023-03-20T15:14:55;11.60;99.90
22813;DHT22;11573;51.334;3.244;2023-03-20T15:17:25;11.70;99.90
22813;DHT22;11573;51.334;3.244;2023-03-20T15:20:09;11.90;99.90
22813;DHT22;11573;51.334;3.244;2023-03-20T15:22:53;11.90;99.90
22813;DHT22;11573;51.334;3.244;2023-03-20T15:28:10;11.70;99.90
22813;DHT22;11573;51.334;3.244;2023-03-20T15:30:39;11.70;99.90
22813;DHT22;11573;51.334;3.244;2023-03-20T15:33:09;11.50;99.90
22813;DHT22;11573;51.334;3.244;2023-03-20T15:35:38;11.50;99.90
22813;DHT22;11573;51.334;3.244;2023-03-20T15:38:06;11.70;99.90
22813;DHT22;11573;51.334;3.244;2023-03-20T15:40:38;11.70;99.90
22813;DHT22;11573;51.334;3.244;2023-03-20T15:43:20;11.60;99.90
22813;DHT22;11573;51.334;3.244;2023-03-20T15:45:48;11.70;99.90
22813;DHT22;11573;51.334;3.244;2023-03-20T15:48:18;11.70;99.90
22813;DHT22;11573;51.334;3.244;2023-03-20T15:50:50;11.80;99.90
22813;DHT22;11573;51.334;3.244;2023-03-20T15:53:28;11.80;99.90
22813;DHT22;11573;51.334;3.244;2023-03-20T15:56:14;11.80;99.90
22813;DHT22;11573;51.334;3.244;2023-03-20T15:58:47;11.80;99.90
22813;DHT22;11573;51.334;3.244;2023-03-20T16:01:21;11.70;99.90
22813;DHT22;11573;51.334;3.244;2023-03-20T16:03:49;11.60;99.90
22813;DHT22;11573;51.334;3.244;2023-03-20T16:06:21;11.60;99.90
22813;DHT22;11573;51.334;3.244;2023-03-20T16:09:04;11.50;99.90
22813;DHT22;11573;51.334;3.244;2023-03-20T16:11:37;11.40;99.90
22813;DHT22;11573;51.334;3.244;2023-03-20T16:14:05;11.40;99.90
22813;DHT22;11573;51.334;3.244;2023-03-20T16:16:33;11.40;99.90
22813;DHT22;11573;51.334;3.244;2023-03-20T16:19:05;11.50;99.90
22813;DHT22;11573;51.334;3.244;2023-03-20T16:21:35;11.40;99.90
22813;DHT22;11573;51.334;3.244;2023-03-20T16:24:06;11.30;99.90
22813;DHT22;11573;51.334;3.244;2023-03-20T16:26:42;11.20;99.90
22813;DHT22;11573;51.334;3.244;2023-03-20T16:29:12;11.00;99.90
22813;DHT22;11573;51.334;3.244;2023-03-20T16:32:02;11.00;99.90
22813;DHT22;11573;51.334;3.244;2023-03-20T16:34:33;11.00;99.90
22813;DHT22;11573;51.334;3.244;2023-03-20T16:37:29;11.00;99.90
22813;DHT22;11573;51.334;3.244;2023-03-20T16:42:54;11.00;99.90
22813;DHT22;11573;51.334;3.244;2023-03-20T16:50:40;10.70;99.90
22813;DHT22;11573;51.334;3.244;2023-03-20T16:53:13;10.70;99.90
22813;DHT22;11573;51.334;3.244;2023-03-20T16:55:46;10.80;99.90
22813;DHT22;11573;51.334;3.244;2023-03-20T16:58:23;10.80;99.90
22813;DHT22;11573;51.334;3.244;2023-03-20T17:01:04;10.80;99.90
22813;DHT22;11573;51.334;3.244;2023-03-20T17:09:29;10.70;99.90
22813;DHT22;11573;51.334;3.244;2023-03-20T17:12:15;10.70;99.90
22813;DHT22;11573;51.334;3.244;2023-03-20T17:14:44;10.60;99.90
22813;DHT22;11573;51.334;3.244;2023-03-20T17:17:16;10.60;99.90
22813;DHT22;11573;51.334;3.244;2023-03-20T17:19:46;10.60;99.90
22813;DHT22;11573;51.334;3.244;2023-03-20T17:24:44;10.50;99.90
22813;DHT22;11573;51.334;3.244;2023-03-20T17:27:12;10.50;99.90
22813;DHT22;11573;51.334;3.244;2023-03-20T17:29:40;10.50;99.90
22813;DHT22;11573;51.334;3.244;2023-03-20T17:32:15;10.50;99.90
22813;DHT22;11573;51.334;3.244;2023-03-20T17:34:42;10.40;99.90
22813;DHT22;11573;51.334;3.244;2023-03-20T17:37:16;10.50;99.90
22813;DHT22;11573;51.334;3.244;2023-03-20T17:39:44;10.40;99.90
22813;DHT22;11573;51.334;3.244;2023-03-20T17:42:19;10.40;99.90
22813;DHT22;11573;51.334;3.244;2023-03-20T17:44:46;10.40;99.90
22813;DHT22;11573;51.334;3.244;2023-03-20T17:47:15;10.40;99.90
22813;DHT22;11573;51.334;3.244;2023-03-20T17:49:43;10.40;99.90
22813;DHT22;11573;51.334;3.244;2023-03-20T17:52:28;10.40;99.90
22813;DHT22;11573;51.334;3.244;2023-03-20T17:54:55;10.40;99.90
22813;DHT22;11573;51.334;3.244;2023-03-20T17:57:31;10.40;99.90
22813;DHT22;11573;51.334;3.244;2023-03-20T17:59:59;10.40;99.90
22813;DHT22;11573;51.334;3.244;2023-03-20T18:02:26;10.40;99.90
22813;DHT22;11573;51.334;3.244;2023-03-20T18:04:53;10.30;99.90
22813;DHT22;11573;51.334;3.244;2023-03-20T18:07:21;10.30;99.90
22813;DHT22;11573;51.334;3.244;2023-03-20T18:09:48;10.30;99.90
22813;DHT22;11573;51.334;3.244;2023-03-20T18:12:17;10.20;99.90
22813;DHT22;11573;51.334;3.244;2023-03-20T18:14:45;10.20;99.90
22813;DHT22;11573;51.334;3.244;2023-03-20T18:17:13;10.20;99.90
22813;DHT22;11573;51.334;3.244;2023-03-20T18:19:41;10.20;99.90
22813;DHT22;11573;51.334;3.244;2023-03-20T18:22:09;10.20;99.90
22813;DHT22;11573;51.334;3.244;2023-03-20T18:24:36;10.10;99.90
22813;DHT22;11573;51.334;3.244;2023-03-20T18:27:10;10.10;99.90
22813;DHT22;11573;51.334;3.244;2023-03-20T18:29:37;10.10;99.90
22813;DHT22;11573;51.334;3.244;2023-03-20T18:32:04;10.10;99.90
22813;DHT22;11573;51.334;3.244;2023-03-20T18:34:31;10.10;99.90
22813;DHT22;11573;51.334;3.244;2023-03-20T18:36:59;10.10;99.90
22813;DHT22;11573;51.334;3.244;2023-03-20T18:39:26;10.00;99.90
22813;DHT22;11573;51.334;3.244;2023-03-20T18:41:53;10.00;99.90
22813;DHT22;11573;51.334;3.244;2023-03-20T18:44:20;10.00;99.90
22813;DHT22;11573;51.334;3.244;2023-03-20T18:46:47;9.90;99.90
22813;DHT22;11573;51.334;3.244;2023-03-20T18:49:16;9.90;99.90
22813;DHT22;11573;51.334;3.244;2023-03-20T18:51:44;9.90;99.90
22813;DHT22;11573;51.334;3.244;2023-03-20T18:54:11;9.90;99.90
22813;DHT22;11573;51.334;3.244;2023-03-20T18:56:38;9.90;99.90